sensor_id;sensor_type;location;lat;lon;timestamp;P1;durP1;ratioP1;P2;durP2;ratioP2
52248;SDS011;38541;48.130;8.378;2023-02-28T00:01:28;3.22;;;2.95;;
52248;SDS011;38541;48.130;8.378;2023-02-28T00:03:55;3.38;;;3.08;;
52248;SDS011;38541;48.130;8.378;2023-02-28T00:06:22;3.10;;;2.80;;
52248;SDS011;38541;48.130;8.378;2023-02-28T00:08:50;3.20;;;2.90;;
52248;SDS011;38541;48.130;8.378;2023-02-28T00:11:16;3.47;;;3.17;;
52248;SDS011;38541;48.130;8.378;2023-02-28T00:13:44;3.33;;;3.03;;
52248;SDS011;38541;48.130;8.378;2023-02-28T00:16:16;3.35;;;3.10;;
52248;SDS011;38541;48.130;8.378;2023-02-28T00:18:45;3.50;;;3.20;;
52248;SDS011;38541;48.130;8.378;2023-02-28T00:21:14;3.78;;;3.20;;
52248;SDS011;38541;48.130;8.378;2023-02-28T00:23:41;3.75;;;3.30;;
52248;SDS011;38541;48.130;8.378;2023-02-28T00:26:07;2.95;;;2.75;;
52248;SDS011;38541;48.130;8.378;2023-02-28T00:28:35;3.33;;;3.03;;
52248;SDS011;38541;48.130;8.378;2023-02-28T00:31:02;3.78;;;3.47;;
52248;SDS011;38541;48.130;8.378;2023-02-28T00:33:29;3.63;;;3.10;;
52248;SDS011;38541;48.130;8.378;2023-02-28T00:36:28;3.92;;;3.60;;
52248;SDS011;38541;48.130;8.378;2023-02-28T00:38:48;3.33;;;3.03;;
52248;SDS011;38541;48.130;8.378;2023-02-28T00:41:14;3.35;;;3.05;;
52248;SDS011;38541;48.130;8.378;2023-02-28T00:43:41;3.75;;;3.45;;
52248;SDS011;38541;48.130;8.378;2023-02-28T00:46:09;3.20;;;2.95;;
52248;SDS011;38541;48.130;8.378;2023-02-28T00:48:36;3.10;;;2.90;;
52248;SDS011;38541;48.130;8.378;2023-02-28T00:51:03;3.17;;;2.88;;
52248;SDS011;38541;48.130;8.378;2023-02-28T00:53:30;3.15;;;2.95;;
52248;SDS011;38541;48.130;8.378;2023-02-28T00:55:58;4.07;;;3.15;;
52248;SDS011;38541;48.130;8.378;2023-02-28T00:58:25;3.70;;;3.40;;
52248;SDS011;38541;48.130;8.378;2023-02-28T01:00:52;3.92;;;3.20;;
52248;SDS011;38541;48.130;8.378;2023-02-28T01:03:20;3.50;;;3.22;;
52248;SDS011;38541;48.130;8.378;2023-02-28T01:05:48;3.72;;;3.40;;
52248;SDS011;38541;48.130;8.378;2023-02-28T01:08:15;3.75;;;3.45;;
52248;SDS011;38541;48.130;8.378;2023-02-28T01:10:42;3.80;;;3.50;;
52248;SDS011;38541;48.130;8.378;2023-02-28T01:13:09;3.45;;;3.15;;
52248;SDS011;38541;48.130;8.378;2023-02-28T01:15:36;4.55;;;4.15;;
52248;SDS011;38541;48.130;8.378;2023-02-28T01:18:04;3.30;;;3.03;;
52248;SDS011;38541;48.130;8.378;2023-02-28T01:20:30;4.30;;;3.35;;
52248;SDS011;38541;48.130;8.378;2023-02-28T01:22:57;3.25;;;2.95;;
52248;SDS011;38541;48.130;8.378;2023-02-28T01:25:23;3.17;;;2.97;;
52248;SDS011;38541;48.130;8.378;2023-02-28T01:27:50;4.20;;;3.28;;
52248;SDS011;38541;48.130;8.378;2023-02-28T01:30:18;3.40;;;3.15;;
52248;SDS011;38541;48.130;8.378;2023-02-28T01:32:46;3.53;;;3.22;;
52248;SDS011;38541;48.130;8.378;2023-02-28T01:35:12;4.47;;;3.92;;
52248;SDS011;38541;48.130;8.378;2023-02-28T01:37:39;3.83;;;3.50;;
52248;SDS011;38541;48.130;8.378;2023-02-28T01:40:05;3.47;;;3.17;;
52248;SDS011;38541;48.130;8.378;2023-02-28T01:42:32;3.95;;;3.05;;
52248;SDS011;38541;48.130;8.378;2023-02-28T01:45:15;3.67;;;3.17;;
52248;SDS011;38541;48.130;8.378;2023-02-28T01:47:45;3.20;;;2.97;;
52248;SDS011;38541;48.130;8.378;2023-02-28T01:50:19;4.82;;;2.90;;
52248;SDS011;38541;48.130;8.378;2023-02-28T01:52:50;4.43;;;3.05;;
52248;SDS011;38541;48.130;8.378;2023-02-28T01:55:19;4.53;;;3.35;;
52248;SDS011;38541;48.130;8.378;2023-02-28T01:57:51;3.38;;;2.67;;
52248;SDS011;38541;48.130;8.378;2023-02-28T02:00:21;2.97;;;2.78;;
52248;SDS011;38541;48.130;8.378;2023-02-28T02:02:51;3.42;;;3.13;;
52248;SDS011;38541;48.130;8.378;2023-02-28T02:05:23;3.88;;;3.13;;
52248;SDS011;38541;48.130;8.378;2023-02-28T02:07:54;3.80;;;3.47;;
52248;SDS011;38541;48.130;8.378;2023-02-28T02:10:33;3.15;;;2.83;;
52248;SDS011;38541;48.130;8.378;2023-02-28T02:13:21;2.88;;;2.67;;
52248;SDS011;38541;48.130;8.378;2023-02-28T02:24:32;3.67;;;3.28;;
52248;SDS011;38541;48.130;8.378;2023-02-28T02:36:19;3.40;;;3.10;;
52248;SDS011;38541;48.130;8.378;2023-02-28T02:39:04;3.15;;;2.85;;
52248;SDS011;38541;48.130;8.378;2023-02-28T02:41:40;3.60;;;3.30;;
52248;SDS011;38541;48.130;8.378;2023-02-28T02:47:11;3.35;;;3.05;;
52248;SDS011;38541;48.130;8.378;2023-02-28T02:49:42;3.65;;;3.35;;
52248;SDS011;38541;48.130;8.378;2023-02-28T02:52:15;3.72;;;3.42;;
52248;SDS011;38541;48.130;8.378;2023-02-28T02:54:47;3.63;;;3.33;;
52248;SDS011;38541;48.130;8.378;2023-02-28T02:57:21;3.28;;;3.05;;
52248;SDS011;38541;48.130;8.378;2023-02-28T02:59:52;4.05;;;3.65;;
52248;SDS011;38541;48.130;8.378;2023-02-28T03:02:21;4.05;;;3.70;;
52248;SDS011;38541;48.130;8.378;2023-02-28T03:04:52;4.60;;;4.20;;
52248;SDS011;38541;48.130;8.378;2023-02-28T03:07:22;3.33;;;3.03;;
52248;SDS011;38541;48.130;8.378;2023-02-28T03:09:50;3.35;;;3.05;;
52248;SDS011;38541;48.130;8.378;2023-02-28T03:12:20;4.47;;;3.53;;
52248;SDS011;38541;48.130;8.378;2023-02-28T03:15:01;3.25;;;3.05;;
52248;SDS011;38541;48.130;8.378;2023-02-28T03:23:00;3.53;;;3.25;;
52248;SDS011;38541;48.130;8.378;2023-02-28T03:25:38;3.85;;;3.55;;
52248;SDS011;38541;48.130;8.378;2023-02-28T03:34:17;3.60;;;3.30;;
52248;SDS011;38541;48.130;8.378;2023-02-28T03:36:51;3.38;;;3.08;;
52248;SDS011;38541;48.130;8.378;2023-02-28T03:39:23;3.83;;;3.53;;
52248;SDS011;38541;48.130;8.378;2023-02-28T03:42:02;5.03;;;3.80;;
52248;SDS011;38541;48.130;8.378;2023-02-28T03:44:42;3.80;;;3.50;;
52248;SDS011;38541;48.130;8.378;2023-02-28T03:47:16;3.83;;;3.53;;
52248;SDS011;38541;48.130;8.378;2023-02-28T03:49:51;3.70;;;3.40;;
52248;SDS011;38541;48.130;8.378;2023-02-28T03:52:25;4.45;;;3.10;;
52248;SDS011;38541;48.130;8.378;2023-02-28T03:54:56;3.25;;;3.05;;
52248;SDS011;38541;48.130;8.378;2023-02-28T04:00:21;4.00;;;3.65;;
52248;SDS011;38541;48.130;8.378;2023-02-28T04:02:54;4.28;;;3.88;;
52248;SDS011;38541;48.130;8.378;2023-02-28T04:05:21;3.80;;;3.50;;
52248;SDS011;38541;48.130;8.378;2023-02-28T04:07:49;4.03;;;3.65;;
52248;SDS011;38541;48.130;8.378;2023-02-28T04:10:15;3.45;;;3.15;;
52248;SDS011;38541;48.130;8.378;2023-02-28T04:12:42;3.92;;;3.58;;
52248;SDS011;38541;48.130;8.378;2023-02-28T04:15:09;3.80;;;3.50;;
52248;SDS011;38541;48.130;8.378;2023-02-28T04:17:37;4.28;;;3.90;;
52248;SDS011;38541;48.130;8.378;2023-02-28T04:20:03;3.10;;;2.90;;
52248;SDS011;38541;48.130;8.378;2023-02-28T04:22:35;6.20;;;4.20;;
52248;SDS011;38541;48.130;8.378;2023-02-28T04:25:03;4.75;;;4.03;;
52248;SDS011;38541;48.130;8.378;2023-02-28T04:27:29;3.83;;;3.53;;
52248;SDS011;38541;48.130;8.378;2023-02-28T04:29:58;3.65;;;3.35;;
52248;SDS011;38541;48.130;8.378;2023-02-28T04:32:24;4.40;;;4.00;;
52248;SDS011;38541;48.130;8.378;2023-02-28T04:34:50;4.43;;;4.03;;
52248;SDS011;38541;48.130;8.378;2023-02-28T04:37:17;3.80;;;3.50;;
52248;SDS011;38541;48.130;8.378;2023-02-28T04:39:43;4.07;;;3.67;;
52248;SDS011;38541;48.130;8.378;2023-02-28T04:42:10;4.25;;;3.95;;
52248;SDS011;38541;48.130;8.378;2023-02-28T04:44:37;4.43;;;3.88;;
52248;SDS011;38541;48.130;8.378;2023-02-28T04:47:04;4.70;;;4.18;;
52248;SDS011;38541;48.130;8.378;2023-02-28T04:49:30;4.45;;;3.83;;
52248;SDS011;38541;48.130;8.378;2023-02-28T04:51:57;5.15;;;4.32;;
52248;SDS011;38541;48.130;8.378;2023-02-28T04:54:23;7.97;;;4.47;;
52248;SDS011;38541;48.130;8.378;2023-02-28T04:56:50;4.25;;;3.95;;
52248;SDS011;38541;48.130;8.378;2023-02-28T04:59:17;4.82;;;3.97;;
52248;SDS011;38541;48.130;8.378;2023-02-28T05:01:47;4.22;;;3.83;;
52248;SDS011;38541;48.130;8.378;2023-02-28T05:04:14;5.60;;;4.03;;
52248;SDS011;38541;48.130;8.378;2023-02-28T05:06:41;3.92;;;3.53;;
52248;SDS011;38541;48.130;8.378;2023-02-28T05:09:08;4.30;;;3.90;;
52248;SDS011;38541;48.130;8.378;2023-02-28T05:11:37;5.05;;;4.07;;
52248;SDS011;38541;48.130;8.378;2023-02-28T05:14:06;4.70;;;3.95;;
52248;SDS011;38541;48.130;8.378;2023-02-28T05:16:36;5.13;;;4.63;;
52248;SDS011;38541;48.130;8.378;2023-02-28T05:19:03;4.43;;;3.70;;
52248;SDS011;38541;48.130;8.378;2023-02-28T05:23:59;4.95;;;4.45;;
52248;SDS011;38541;48.130;8.378;2023-02-28T05:26:28;4.70;;;4.32;;
52248;SDS011;38541;48.130;8.378;2023-02-28T05:28:54;4.60;;;4.22;;
52248;SDS011;38541;48.130;8.378;2023-02-28T05:31:21;4.68;;;4.22;;
52248;SDS011;38541;48.130;8.378;2023-02-28T05:33:48;4.75;;;4.25;;
52248;SDS011;38541;48.130;8.378;2023-02-28T05:36:14;4.43;;;4.03;;
52248;SDS011;38541;48.130;8.378;2023-02-28T05:38:41;4.63;;;4.20;;
52248;SDS011;38541;48.130;8.378;2023-02-28T05:41:08;5.05;;;4.55;;
52248;SDS011;38541;48.130;8.378;2023-02-28T05:43:36;4.70;;;4.30;;
52248;SDS011;38541;48.130;8.378;2023-02-28T05:46:04;4.50;;;4.10;;
52248;SDS011;38541;48.130;8.378;2023-02-28T05:48:35;4.57;;;4.18;;
52248;SDS011;38541;48.130;8.378;2023-02-28T05:51:03;5.43;;;4.10;;
52248;SDS011;38541;48.130;8.378;2023-02-28T05:53:31;4.88;;;4.43;;
52248;SDS011;38541;48.130;8.378;2023-02-28T05:55:58;4.57;;;3.75;;
52248;SDS011;38541;48.130;8.378;2023-02-28T05:58:25;4.38;;;3.97;;
52248;SDS011;38541;48.130;8.378;2023-02-28T06:00:55;4.25;;;3.75;;
52248;SDS011;38541;48.130;8.378;2023-02-28T06:03:22;6.13;;;4.30;;
52248;SDS011;38541;48.130;8.378;2023-02-28T06:05:48;4.78;;;4.38;;
52248;SDS011;38541;48.130;8.378;2023-02-28T06:08:14;5.00;;;4.30;;
52248;SDS011;38541;48.130;8.378;2023-02-28T06:10:41;4.43;;;3.83;;
52248;SDS011;38541;48.130;8.378;2023-02-28T06:13:08;4.93;;;4.35;;
52248;SDS011;38541;48.130;8.378;2023-02-28T06:15:34;4.90;;;4.40;;
52248;SDS011;38541;48.130;8.378;2023-02-28T06:18:01;4.95;;;4.55;;
52248;SDS011;38541;48.130;8.378;2023-02-28T06:20:28;4.82;;;4.43;;
52248;SDS011;38541;48.130;8.378;2023-02-28T06:22:56;5.22;;;4.78;;
52248;SDS011;38541;48.130;8.378;2023-02-28T06:25:25;5.50;;;5.00;;
52248;SDS011;38541;48.130;8.378;2023-02-28T06:27:52;5.15;;;4.72;;
52248;SDS011;38541;48.130;8.378;2023-02-28T06:30:20;5.05;;;4.53;;
52248;SDS011;38541;48.130;8.378;2023-02-28T06:32:51;5.53;;;4.97;;
52248;SDS011;38541;48.130;8.378;2023-02-28T06:35:18;4.85;;;4.43;;
52248;SDS011;38541;48.130;8.378;2023-02-28T06:37:44;5.55;;;4.97;;
52248;SDS011;38541;48.130;8.378;2023-02-28T06:40:11;5.53;;;4.95;;
52248;SDS011;38541;48.130;8.378;2023-02-28T06:42:39;5.45;;;4.90;;
52248;SDS011;38541;48.130;8.378;2023-02-28T06:45:05;5.88;;;5.07;;
52248;SDS011;38541;48.130;8.378;2023-02-28T06:47:36;5.65;;;5.00;;
52248;SDS011;38541;48.130;8.378;2023-02-28T06:50:04;5.15;;;4.65;;
52248;SDS011;38541;48.130;8.378;2023-02-28T06:52:31;6.93;;;6.22;;
52248;SDS011;38541;48.130;8.378;2023-02-28T06:54:58;10.45;;;9.35;;
52248;SDS011;38541;48.130;8.378;2023-02-28T06:57:29;7.53;;;6.82;;
52248;SDS011;38541;48.130;8.378;2023-02-28T06:59:57;7.03;;;6.18;;
52248;SDS011;38541;48.130;8.378;2023-02-28T07:02:25;8.82;;;7.93;;
52248;SDS011;38541;48.130;8.378;2023-02-28T07:04:52;7.03;;;5.95;;
52248;SDS011;38541;48.130;8.378;2023-02-28T07:07:18;5.75;;;5.18;;
52248;SDS011;38541;48.130;8.378;2023-02-28T07:09:45;6.00;;;5.43;;
52248;SDS011;38541;48.130;8.378;2023-02-28T07:12:11;6.13;;;5.50;;
52248;SDS011;38541;48.130;8.378;2023-02-28T07:14:38;7.25;;;6.22;;
52248;SDS011;38541;48.130;8.378;2023-02-28T07:17:06;7.15;;;6.43;;
52248;SDS011;38541;48.130;8.378;2023-02-28T07:19:34;6.03;;;5.47;;
52248;SDS011;38541;48.130;8.378;2023-02-28T07:22:00;12.88;;;10.98;;
52248;SDS011;38541;48.130;8.378;2023-02-28T07:24:28;7.57;;;6.63;;
52248;SDS011;38541;48.130;8.378;2023-02-28T07:26:55;6.00;;;5.50;;
52248;SDS011;38541;48.130;8.378;2023-02-28T07:29:22;6.47;;;5.88;;
52248;SDS011;38541;48.130;8.378;2023-02-28T07:31:48;6.65;;;5.95;;
52248;SDS011;38541;48.130;8.378;2023-02-28T07:34:19;6.32;;;5.53;;
52248;SDS011;38541;48.130;8.378;2023-02-28T07:36:46;5.82;;;5.32;;
52248;SDS011;38541;48.130;8.378;2023-02-28T07:39:13;6.35;;;5.75;;
52248;SDS011;38541;48.130;8.378;2023-02-28T07:41:39;5.78;;;5.28;;
52248;SDS011;38541;48.130;8.378;2023-02-28T07:44:10;5.85;;;5.32;;
52248;SDS011;38541;48.130;8.378;2023-02-28T07:46:37;5.90;;;5.35;;
52248;SDS011;38541;48.130;8.378;2023-02-28T07:49:04;6.20;;;5.53;;
52248;SDS011;38541;48.130;8.378;2023-02-28T07:51:31;6.32;;;5.72;;
52248;SDS011;38541;48.130;8.378;2023-02-28T07:53:58;7.20;;;6.45;;
52248;SDS011;38541;48.130;8.378;2023-02-28T07:56:25;7.53;;;6.80;;
52248;SDS011;38541;48.130;8.378;2023-02-28T07:58:51;6.07;;;5.50;;
52248;SDS011;38541;48.130;8.378;2023-02-28T08:01:18;6.10;;;5.50;;
52248;SDS011;38541;48.130;8.378;2023-02-28T08:03:45;8.27;;;6.03;;
52248;SDS011;38541;48.130;8.378;2023-02-28T08:06:20;6.80;;;6.07;;
52248;SDS011;38541;48.130;8.378;2023-02-28T08:08:48;6.63;;;6.03;;
52248;SDS011;38541;48.130;8.378;2023-02-28T08:11:15;8.15;;;6.38;;
52248;SDS011;38541;48.130;8.378;2023-02-28T08:13:43;7.97;;;6.80;;
52248;SDS011;38541;48.130;8.378;2023-02-28T08:16:11;6.55;;;5.97;;
52248;SDS011;38541;48.130;8.378;2023-02-28T08:18:43;7.85;;;6.63;;
52248;SDS011;38541;48.130;8.378;2023-02-28T08:21:10;6.45;;;5.85;;
52248;SDS011;38541;48.130;8.378;2023-02-28T08:23:36;6.70;;;6.07;;
52248;SDS011;38541;48.130;8.378;2023-02-28T08:26:03;7.07;;;6.38;;
52248;SDS011;38541;48.130;8.378;2023-02-28T08:28:30;7.05;;;6.35;;
52248;SDS011;38541;48.130;8.378;2023-02-28T08:30:56;6.15;;;5.57;;
52248;SDS011;38541;48.130;8.378;2023-02-28T08:33:23;6.60;;;5.88;;
52248;SDS011;38541;48.130;8.378;2023-02-28T08:35:54;6.57;;;5.88;;
52248;SDS011;38541;48.130;8.378;2023-02-28T08:38:22;6.13;;;5.53;;
52248;SDS011;38541;48.130;8.378;2023-02-28T08:40:49;6.68;;;6.07;;
52248;SDS011;38541;48.130;8.378;2023-02-28T08:43:16;5.93;;;5.40;;
52248;SDS011;38541;48.130;8.378;2023-02-28T08:45:42;7.13;;;6.43;;
52248;SDS011;38541;48.130;8.378;2023-02-28T08:48:09;7.18;;;6.47;;
52248;SDS011;38541;48.130;8.378;2023-02-28T08:50:36;7.63;;;6.38;;
52248;SDS011;38541;48.130;8.378;2023-02-28T08:53:02;7.38;;;6.68;;
52248;SDS011;38541;48.130;8.378;2023-02-28T08:55:29;7.05;;;6.35;;
52248;SDS011;38541;48.130;8.378;2023-02-28T08:57:55;6.55;;;5.82;;
52248;SDS011;38541;48.130;8.378;2023-02-28T09:00:21;7.28;;;6.60;;
52248;SDS011;38541;48.130;8.378;2023-02-28T09:02:48;6.30;;;5.45;;
52248;SDS011;38541;48.130;8.378;2023-02-28T09:05:15;6.40;;;5.80;;
52248;SDS011;38541;48.130;8.378;2023-02-28T09:07:41;6.60;;;5.90;;
52248;SDS011;38541;48.130;8.378;2023-02-28T09:10:08;7.63;;;6.10;;
52248;SDS011;38541;48.130;8.378;2023-02-28T09:12:35;6.05;;;5.45;;
52248;SDS011;38541;48.130;8.378;2023-02-28T09:15:02;7.95;;;6.43;;
52248;SDS011;38541;48.130;8.378;2023-02-28T09:17:29;8.40;;;6.53;;
52248;SDS011;38541;48.130;8.378;2023-02-28T09:19:56;7.25;;;5.70;;
52248;SDS011;38541;48.130;8.378;2023-02-28T09:22:23;8.30;;;5.90;;
52248;SDS011;38541;48.130;8.378;2023-02-28T09:24:50;6.45;;;5.82;;
52248;SDS011;38541;48.130;8.378;2023-02-28T09:27:16;6.88;;;6.15;;
52248;SDS011;38541;48.130;8.378;2023-02-28T09:29:43;8.77;;;6.70;;
52248;SDS011;38541;48.130;8.378;2023-02-28T09:32:09;7.80;;;6.60;;
52248;SDS011;38541;48.130;8.378;2023-02-28T09:34:37;6.30;;;5.78;;
52248;SDS011;38541;48.130;8.378;2023-02-28T09:37:03;7.28;;;6.15;;
52248;SDS011;38541;48.130;8.378;2023-02-28T09:39:30;10.18;;;7.30;;
52248;SDS011;38541;48.130;8.378;2023-02-28T09:41:57;6.60;;;5.65;;
52248;SDS011;38541;48.130;8.378;2023-02-28T09:44:37;7.45;;;6.75;;
52248;SDS011;38541;48.130;8.378;2023-02-28T09:47:13;7.25;;;6.45;;
52248;SDS011;38541;48.130;8.378;2023-02-28T09:49:47;9.48;;;7.00;;
52248;SDS011;38541;48.130;8.378;2023-02-28T09:52:19;7.35;;;6.57;;
52248;SDS011;38541;48.130;8.378;2023-02-28T09:54:50;6.82;;;6.10;;
52248;SDS011;38541;48.130;8.378;2023-02-28T09:57:25;7.07;;;6.38;;
52248;SDS011;38541;48.130;8.378;2023-02-28T10:05:51;6.57;;;5.90;;
52248;SDS011;38541;48.130;8.378;2023-02-28T10:08:38;8.45;;;7.57;;
52248;SDS011;38541;48.130;8.378;2023-02-28T10:11:12;8.32;;;7.40;;
52248;SDS011;38541;48.130;8.378;2023-02-28T10:16:18;7.45;;;6.47;;
52248;SDS011;38541;48.130;8.378;2023-02-28T10:19:08;7.50;;;6.75;;
52248;SDS011;38541;48.130;8.378;2023-02-28T10:21:38;8.90;;;7.15;;
52248;SDS011;38541;48.130;8.378;2023-02-28T10:26:59;10.23;;;6.85;;
52248;SDS011;38541;48.130;8.378;2023-02-28T10:29:53;7.68;;;6.45;;
52248;SDS011;38541;48.130;8.378;2023-02-28T10:32:25;9.35;;;7.35;;
52248;SDS011;38541;48.130;8.378;2023-02-28T10:37:45;8.73;;;7.18;;
52248;SDS011;38541;48.130;8.378;2023-02-28T10:42:59;9.00;;;7.68;;
52248;SDS011;38541;48.130;8.378;2023-02-28T10:56:03;7.70;;;6.90;;
52248;SDS011;38541;48.130;8.378;2023-02-28T10:58:52;8.02;;;6.63;;
52248;SDS011;38541;48.130;8.378;2023-02-28T11:06:59;8.32;;;7.38;;
52248;SDS011;38541;48.130;8.378;2023-02-28T11:09:29;7.32;;;6.60;;
52248;SDS011;38541;48.130;8.378;2023-02-28T11:12:01;8.68;;;7.05;;
52248;SDS011;38541;48.130;8.378;2023-02-28T11:14:31;8.25;;;6.38;;
52248;SDS011;38541;48.130;8.378;2023-02-28T11:20:06;8.25;;;6.82;;
52248;SDS011;38541;48.130;8.378;2023-02-28T11:22:43;7.00;;;6.30;;
52248;SDS011;38541;48.130;8.378;2023-02-28T11:25:22;8.98;;;6.85;;
52248;SDS011;38541;48.130;8.378;2023-02-28T11:27:53;9.32;;;7.38;;
52248;SDS011;38541;48.130;8.378;2023-02-28T11:32:56;8.57;;;6.88;;
52248;SDS011;38541;48.130;8.378;2023-02-28T11:35:27;8.80;;;7.03;;
52248;SDS011;38541;48.130;8.378;2023-02-28T11:37:57;8.98;;;6.80;;
52248;SDS011;38541;48.130;8.378;2023-02-28T11:40:28;8.77;;;7.22;;
52248;SDS011;38541;48.130;8.378;2023-02-28T11:43:12;8.55;;;6.72;;
52248;SDS011;38541;48.130;8.378;2023-02-28T11:45:56;8.10;;;7.00;;
52248;SDS011;38541;48.130;8.378;2023-02-28T11:48:40;8.05;;;6.75;;
52248;SDS011;38541;48.130;8.378;2023-02-28T11:51:15;8.48;;;6.68;;
52248;SDS011;38541;48.130;8.378;2023-02-28T11:53:49;8.48;;;7.35;;
52248;SDS011;38541;48.130;8.378;2023-02-28T11:56:31;7.95;;;6.75;;
52248;SDS011;38541;48.130;8.378;2023-02-28T11:59:14;7.57;;;6.85;;
52248;SDS011;38541;48.130;8.378;2023-02-28T12:07:47;9.05;;;6.57;;
52248;SDS011;38541;48.130;8.378;2023-02-28T12:10:24;8.95;;;7.10;;
52248;SDS011;38541;48.130;8.378;2023-02-28T12:16:08;8.57;;;7.55;;
52248;SDS011;38541;48.130;8.378;2023-02-28T12:27:05;7.75;;;6.28;;
52248;SDS011;38541;48.130;8.378;2023-02-28T12:29:55;8.43;;;6.47;;
52248;SDS011;38541;48.130;8.378;2023-02-28T12:32:30;8.63;;;7.13;;
52248;SDS011;38541;48.130;8.378;2023-02-28T12:37:40;10.75;;;7.90;;
52248;SDS011;38541;48.130;8.378;2023-02-28T12:40:13;10.98;;;7.85;;
52248;SDS011;38541;48.130;8.378;2023-02-28T12:42:45;10.27;;;8.25;;
52248;SDS011;38541;48.130;8.378;2023-02-28T12:45:20;8.80;;;6.90;;
52248;SDS011;38541;48.130;8.378;2023-02-28T12:47:56;9.20;;;7.45;;
52248;SDS011;38541;48.130;8.378;2023-02-28T12:50:26;8.23;;;6.85;;
52248;SDS011;38541;48.130;8.378;2023-02-28T12:53:00;9.13;;;7.35;;
52248;SDS011;38541;48.130;8.378;2023-02-28T13:07:02;8.00;;;7.05;;
52248;SDS011;38541;48.130;8.378;2023-02-28T13:09:57;9.00;;;7.28;;
52248;SDS011;38541;48.130;8.378;2023-02-28T13:12:26;8.48;;;7.57;;
52248;SDS011;38541;48.130;8.378;2023-02-28T13:15:27;10.35;;;7.70;;
52248;SDS011;38541;48.130;8.378;2023-02-28T13:17:52;7.90;;;7.10;;
52248;SDS011;38541;48.130;8.378;2023-02-28T13:20:24;8.57;;;7.60;;
52248;SDS011;38541;48.130;8.378;2023-02-28T13:22:55;8.10;;;7.28;;
52248;SDS011;38541;48.130;8.378;2023-02-28T13:28:11;7.65;;;6.85;;
52248;SDS011;38541;48.130;8.378;2023-02-28T13:33:30;9.57;;;7.32;;
52248;SDS011;38541;48.130;8.378;2023-02-28T13:38:46;8.77;;;7.13;;
52248;SDS011;38541;48.130;8.378;2023-02-28T14:00:02;8.95;;;8.05;;
52248;SDS011;38541;48.130;8.378;2023-02-28T14:08:51;9.00;;;6.75;;
52248;SDS011;38541;48.130;8.378;2023-02-28T14:11:29;8.23;;;7.05;;
52248;SDS011;38541;48.130;8.378;2023-02-28T14:13:58;10.48;;;7.97;;
52248;SDS011;38541;48.130;8.378;2023-02-28T14:16:27;8.80;;;7.00;;
52248;SDS011;38541;48.130;8.378;2023-02-28T14:19:13;8.80;;;7.38;;
52248;SDS011;38541;48.130;8.378;2023-02-28T14:21:49;7.82;;;6.38;;
52248;SDS011;38541;48.130;8.378;2023-02-28T14:24:38;10.35;;;8.18;;
52248;SDS011;38541;48.130;8.378;2023-02-28T14:37:45;7.25;;;6.43;;
52248;SDS011;38541;48.130;8.378;2023-02-28T14:40:15;8.40;;;7.30;;
52248;SDS011;38541;48.130;8.378;2023-02-28T14:42:55;8.43;;;6.90;;
52248;SDS011;38541;48.130;8.378;2023-02-28T14:45:27;7.13;;;6.40;;
52248;SDS011;38541;48.130;8.378;2023-02-28T14:47:56;9.27;;;6.85;;
52248;SDS011;38541;48.130;8.378;2023-02-28T14:50:32;8.35;;;7.10;;
52248;SDS011;38541;48.130;8.378;2023-02-28T14:53:01;10.48;;;7.85;;
52248;SDS011;38541;48.130;8.378;2023-02-28T14:55:33;8.95;;;7.90;;
52248;SDS011;38541;48.130;8.378;2023-02-28T14:58:02;7.43;;;6.72;;
52248;SDS011;38541;48.130;8.378;2023-02-28T15:00:33;8.52;;;7.60;;
52248;SDS011;38541;48.130;8.378;2023-02-28T15:03:20;8.23;;;7.43;;
52248;SDS011;38541;48.130;8.378;2023-02-28T15:06:11;8.00;;;7.13;;
52248;SDS011;38541;48.130;8.378;2023-02-28T15:08:41;9.60;;;7.43;;
52248;SDS011;38541;48.130;8.378;2023-02-28T15:11:08;8.48;;;7.20;;
52248;SDS011;38541;48.130;8.378;2023-02-28T15:13:49;8.55;;;7.40;;
52248;SDS011;38541;48.130;8.378;2023-02-28T15:16:19;10.45;;;7.75;;
52248;SDS011;38541;48.130;8.378;2023-02-28T15:21:20;8.05;;;6.68;;
52248;SDS011;38541;48.130;8.378;2023-02-28T15:23:51;7.57;;;6.78;;
52248;SDS011;38541;48.130;8.378;2023-02-28T15:26:23;7.85;;;7.10;;
52248;SDS011;38541;48.130;8.378;2023-02-28T15:29:13;6.88;;;6.15;;
52248;SDS011;38541;48.130;8.378;2023-02-28T15:31:50;7.93;;;7.20;;
52248;SDS011;38541;48.130;8.378;2023-02-28T15:39:53;8.35;;;7.25;;
52248;SDS011;38541;48.130;8.378;2023-02-28T15:42:22;7.32;;;6.63;;
52248;SDS011;38541;48.130;8.378;2023-02-28T15:44:49;8.88;;;7.85;;
52248;SDS011;38541;48.130;8.378;2023-02-28T15:47:17;7.45;;;6.75;;
52248;SDS011;38541;48.130;8.378;2023-02-28T15:49:59;9.93;;;7.80;;
52248;SDS011;38541;48.130;8.378;2023-02-28T15:52:38;9.43;;;7.90;;
52248;SDS011;38541;48.130;8.378;2023-02-28T15:55:11;9.77;;;8.38;;
52248;SDS011;38541;48.130;8.378;2023-02-28T15:57:45;9.88;;;8.23;;
52248;SDS011;38541;48.130;8.378;2023-02-28T16:00:13;9.48;;;7.20;;
52248;SDS011;38541;48.130;8.378;2023-02-28T16:02:41;7.70;;;6.90;;
52248;SDS011;38541;48.130;8.378;2023-02-28T16:07:35;8.35;;;7.55;;
52248;SDS011;38541;48.130;8.378;2023-02-28T16:10:04;7.82;;;7.13;;
52248;SDS011;38541;48.130;8.378;2023-02-28T16:12:32;8.02;;;7.10;;
52248;SDS011;38541;48.130;8.378;2023-02-28T16:15:09;8.77;;;7.93;;
52248;SDS011;38541;48.130;8.378;2023-02-28T16:17:44;9.90;;;7.97;;
52248;SDS011;38541;48.130;8.378;2023-02-28T16:20:22;8.32;;;7.45;;
52248;SDS011;38541;48.130;8.378;2023-02-28T16:22:53;10.00;;;7.95;;
52248;SDS011;38541;48.130;8.378;2023-02-28T16:25:24;9.15;;;7.28;;
52248;SDS011;38541;48.130;8.378;2023-02-28T16:27:59;8.18;;;7.35;;
52248;SDS011;38541;48.130;8.378;2023-02-28T16:30:27;10.20;;;7.20;;
52248;SDS011;38541;48.130;8.378;2023-02-28T16:32:57;9.57;;;8.05;;
52248;SDS011;38541;48.130;8.378;2023-02-28T16:35:24;10.25;;;7.95;;
52248;SDS011;38541;48.130;8.378;2023-02-28T16:37:51;8.63;;;7.72;;
52248;SDS011;38541;48.130;8.378;2023-02-28T16:40:19;8.23;;;7.40;;
52248;SDS011;38541;48.130;8.378;2023-02-28T16:42:52;8.32;;;7.32;;
52248;SDS011;38541;48.130;8.378;2023-02-28T16:45:22;9.45;;;7.78;;
52248;SDS011;38541;48.130;8.378;2023-02-28T16:47:50;8.27;;;7.47;;
52248;SDS011;38541;48.130;8.378;2023-02-28T16:50:18;9.85;;;7.30;;
52248;SDS011;38541;48.130;8.378;2023-02-28T16:52:46;7.78;;;6.97;;
52248;SDS011;38541;48.130;8.378;2023-02-28T16:55:14;8.98;;;8.18;;
52248;SDS011;38541;48.130;8.378;2023-02-28T16:57:41;9.32;;;8.20;;
52248;SDS011;38541;48.130;8.378;2023-02-28T17:00:12;9.05;;;8.13;;
52248;SDS011;38541;48.130;8.378;2023-02-28T17:02:39;9.35;;;7.72;;
52248;SDS011;38541;48.130;8.378;2023-02-28T17:05:08;9.65;;;8.20;;
52248;SDS011;38541;48.130;8.378;2023-02-28T17:07:38;9.30;;;8.23;;
52248;SDS011;38541;48.130;8.378;2023-02-28T17:10:15;10.15;;;8.80;;
52248;SDS011;38541;48.130;8.378;2023-02-28T17:12:48;8.65;;;7.78;;
52248;SDS011;38541;48.130;8.378;2023-02-28T17:15:15;8.40;;;7.60;;
52248;SDS011;38541;48.130;8.378;2023-02-28T17:17:43;9.40;;;7.47;;
52248;SDS011;38541;48.130;8.378;2023-02-28T17:20:21;9.88;;;8.20;;
52248;SDS011;38541;48.130;8.378;2023-02-28T17:22:49;9.65;;;8.13;;
52248;SDS011;38541;48.130;8.378;2023-02-28T17:25:16;8.80;;;7.57;;
52248;SDS011;38541;48.130;8.378;2023-02-28T17:27:43;10.82;;;8.45;;
52248;SDS011;38541;48.130;8.378;2023-02-28T17:32:40;11.10;;;8.80;;
52248;SDS011;38541;48.130;8.378;2023-02-28T17:35:07;9.30;;;8.30;;
52248;SDS011;38541;48.130;8.378;2023-02-28T17:37:34;13.73;;;9.18;;
52248;SDS011;38541;48.130;8.378;2023-02-28T17:40:01;9.13;;;8.20;;
52248;SDS011;38541;48.130;8.378;2023-02-28T17:42:29;8.75;;;7.70;;
52248;SDS011;38541;48.130;8.378;2023-02-28T17:44:55;7.95;;;7.20;;
52248;SDS011;38541;48.130;8.378;2023-02-28T17:47:21;9.32;;;8.18;;
52248;SDS011;38541;48.130;8.378;2023-02-28T17:49:48;10.02;;;8.30;;
52248;SDS011;38541;48.130;8.378;2023-02-28T17:52:14;12.07;;;8.45;;